sensor_id;sensor_type;location;lat;lon;timestamp;P1;durP1;ratioP1;P2;durP2;ratioP2
4132;SDS011;2080;51.038;7.008;2022-10-31T00:00:00;1017.33;;;924.10;;
4132;SDS011;2080;51.038;7.008;2022-10-31T00:02:26;1038.23;;;943.47;;
4132;SDS011;2080;51.038;7.008;2022-10-31T00:04:53;1029.00;;;936.93;;
4132;SDS011;2080;51.038;7.008;2022-10-31T00:07:18;1025.73;;;931.37;;
4132;SDS011;2080;51.038;7.008;2022-10-31T00:09:43;1023.83;;;929.23;;
4132;SDS011;2080;51.038;7.008;2022-10-31T00:12:09;984.00;;;896.13;;
4132;SDS011;2080;51.038;7.008;2022-10-31T00:14:34;994.67;;;904.40;;
4132;SDS011;2080;51.038;7.008;2022-10-31T00:17:01;1014.97;;;923.30;;
4132;SDS011;2080;51.038;7.008;2022-10-31T00:19:26;984.97;;;893.03;;
4132;SDS011;2080;51.038;7.008;2022-10-31T00:21:54;1023.37;;;931.00;;
4132;SDS011;2080;51.038;7.008;2022-10-31T00:24:19;1011.73;;;918.47;;
4132;SDS011;2080;51.038;7.008;2022-10-31T00:26:45;1019.43;;;925.73;;
4132;SDS011;2080;51.038;7.008;2022-10-31T00:29:10;1013.47;;;923.87;;
4132;SDS011;2080;51.038;7.008;2022-10-31T00:31:35;1037.97;;;944.90;;
4132;SDS011;2080;51.038;7.008;2022-10-31T00:34:03;996.10;;;904.13;;
4132;SDS011;2080;51.038;7.008;2022-10-31T00:36:30;1010.53;;;918.87;;
4132;SDS011;2080;51.038;7.008;2022-10-31T00:38:57;1007.90;;;914.97;;
4132;SDS011;2080;51.038;7.008;2022-10-31T00:41:25;1010.57;;;917.77;;
4132;SDS011;2080;51.038;7.008;2022-10-31T00:43:50;1015.33;;;921.67;;
4132;SDS011;2080;51.038;7.008;2022-10-31T00:46:18;1031.50;;;936.67;;
4132;SDS011;2080;51.038;7.008;2022-10-31T00:48:43;1042.80;;;948.33;;
4132;SDS011;2080;51.038;7.008;2022-10-31T00:51:08;1052.97;;;957.23;;
4132;SDS011;2080;51.038;7.008;2022-10-31T00:53:36;1058.77;;;962.27;;
4132;SDS011;2080;51.038;7.008;2022-10-31T00:56:01;1034.90;;;938.77;;
4132;SDS011;2080;51.038;7.008;2022-10-31T00:58:27;1008.83;;;915.47;;
4132;SDS011;2080;51.038;7.008;2022-10-31T01:00:54;1052.57;;;955.20;;
4132;SDS011;2080;51.038;7.008;2022-10-31T01:03:23;1044.10;;;949.53;;
4132;SDS011;2080;51.038;7.008;2022-10-31T01:05:56;1020.77;;;926.20;;
4132;SDS011;2080;51.038;7.008;2022-10-31T01:08:23;1022.10;;;928.03;;
4132;SDS011;2080;51.038;7.008;2022-10-31T01:13:52;978.90;;;887.17;;
4132;SDS011;2080;51.038;7.008;2022-10-31T01:16:19;999.47;;;907.97;;
4132;SDS011;2080;51.038;7.008;2022-10-31T01:18:44;1025.53;;;929.57;;
4132;SDS011;2080;51.038;7.008;2022-10-31T01:21:14;1021.57;;;926.30;;
4132;SDS011;2080;51.038;7.008;2022-10-31T01:23:39;1021.03;;;927.07;;
4132;SDS011;2080;51.038;7.008;2022-10-31T01:28:30;1028.13;;;932.60;;
4132;SDS011;2080;51.038;7.008;2022-10-31T01:31:05;1031.20;;;938.47;;
4132;SDS011;2080;51.038;7.008;2022-10-31T01:33:30;1042.77;;;948.77;;
4132;SDS011;2080;51.038;7.008;2022-10-31T01:35:55;1016.53;;;922.07;;
4132;SDS011;2080;51.038;7.008;2022-10-31T01:38:20;983.90;;;893.17;;
4132;SDS011;2080;51.038;7.008;2022-10-31T01:40:46;982.90;;;892.13;;
4132;SDS011;2080;51.038;7.008;2022-10-31T01:43:12;1012.00;;;918.00;;
4132;SDS011;2080;51.038;7.008;2022-10-31T01:45:41;1031.23;;;936.77;;
4132;SDS011;2080;51.038;7.008;2022-10-31T01:48:11;1045.53;;;950.13;;
4132;SDS011;2080;51.038;7.008;2022-10-31T01:50:38;1018.03;;;924.23;;
4132;SDS011;2080;51.038;7.008;2022-10-31T01:53:06;997.07;;;906.77;;
4132;SDS011;2080;51.038;7.008;2022-10-31T01:55:33;985.93;;;895.67;;
4132;SDS011;2080;51.038;7.008;2022-10-31T01:58:02;1005.17;;;912.73;;
4132;SDS011;2080;51.038;7.008;2022-10-31T02:00:29;1019.93;;;926.43;;
4132;SDS011;2080;51.038;7.008;2022-10-31T02:02:57;999.10;;;905.97;;
4132;SDS011;2080;51.038;7.008;2022-10-31T02:05:24;984.13;;;894.13;;
4132;SDS011;2080;51.038;7.008;2022-10-31T02:10:22;996.27;;;904.93;;
4132;SDS011;2080;51.038;7.008;2022-10-31T02:12:48;998.30;;;903.93;;
4132;SDS011;2080;51.038;7.008;2022-10-31T02:15:17;1018.27;;;922.67;;
4132;SDS011;2080;51.038;7.008;2022-10-31T02:17:42;1002.70;;;910.57;;
4132;SDS011;2080;51.038;7.008;2022-10-31T02:20:18;1078.57;;;980.10;;
4132;SDS011;2080;51.038;7.008;2022-10-31T02:41:39;1041.03;;;946.57;;
4132;SDS011;2080;51.038;7.008;2022-10-31T02:44:09;1047.50;;;952.10;;
4132;SDS011;2080;51.038;7.008;2022-10-31T02:51:53;1030.17;;;932.57;;
4132;SDS011;2080;51.038;7.008;2022-10-31T02:54:25;981.23;;;889.90;;
4132;SDS011;2080;51.038;7.008;2022-10-31T02:56:52;1064.00;;;968.13;;
4132;SDS011;2080;51.038;7.008;2022-10-31T02:59:18;1058.33;;;963.87;;
4132;SDS011;2080;51.038;7.008;2022-10-31T03:12:11;1017.97;;;924.07;;
4132;SDS011;2080;51.038;7.008;2022-10-31T03:14:41;1023.50;;;929.50;;
4132;SDS011;2080;51.038;7.008;2022-10-31T03:17:09;1047.17;;;953.40;;
4132;SDS011;2080;51.038;7.008;2022-10-31T03:19:42;1047.33;;;953.10;;
4132;SDS011;2080;51.038;7.008;2022-10-31T03:22:15;1046.73;;;950.80;;
4132;SDS011;2080;51.038;7.008;2022-10-31T03:24:40;1029.00;;;934.03;;
4132;SDS011;2080;51.038;7.008;2022-10-31T03:27:09;1020.50;;;926.60;;
4132;SDS011;2080;51.038;7.008;2022-10-31T03:29:38;1028.63;;;935.97;;
4132;SDS011;2080;51.038;7.008;2022-10-31T03:32:09;1035.07;;;940.67;;
4132;SDS011;2080;51.038;7.008;2022-10-31T03:34:43;1005.27;;;913.93;;
4132;SDS011;2080;51.038;7.008;2022-10-31T03:37:11;1041.83;;;948.17;;
4132;SDS011;2080;51.038;7.008;2022-10-31T03:39:41;1037.77;;;942.27;;
4132;SDS011;2080;51.038;7.008;2022-10-31T03:42:10;997.67;;;906.50;;
4132;SDS011;2080;51.038;7.008;2022-10-31T03:44:36;1042.10;;;950.33;;
4132;SDS011;2080;51.038;7.008;2022-10-31T03:47:06;1036.63;;;941.23;;
4132;SDS011;2080;51.038;7.008;2022-10-31T03:49:31;1061.77;;;966.27;;
4132;SDS011;2080;51.038;7.008;2022-10-31T03:52:02;1021.63;;;931.80;;
4132;SDS011;2080;51.038;7.008;2022-10-31T03:54:42;1054.10;;;957.43;;
4132;SDS011;2080;51.038;7.008;2022-10-31T03:57:12;1040.77;;;947.27;;
4132;SDS011;2080;51.038;7.008;2022-10-31T03:59:41;1021.17;;;929.53;;
4132;SDS011;2080;51.038;7.008;2022-10-31T04:02:12;1016.93;;;926.30;;
4132;SDS011;2080;51.038;7.008;2022-10-31T04:04:41;979.40;;;890.77;;
4132;SDS011;2080;51.038;7.008;2022-10-31T04:07:07;992.07;;;901.17;;
4132;SDS011;2080;51.038;7.008;2022-10-31T04:09:36;978.73;;;889.37;;
4132;SDS011;2080;51.038;7.008;2022-10-31T04:12:02;1031.10;;;938.80;;
4132;SDS011;2080;51.038;7.008;2022-10-31T04:14:28;990.00;;;900.40;;
4132;SDS011;2080;51.038;7.008;2022-10-31T04:16:57;1014.37;;;922.50;;
4132;SDS011;2080;51.038;7.008;2022-10-31T04:19:22;999.10;;;907.90;;
4132;SDS011;2080;51.038;7.008;2022-10-31T04:21:47;1007.63;;;917.37;;
4132;SDS011;2080;51.038;7.008;2022-10-31T04:24:12;1008.20;;;917.17;;
4132;SDS011;2080;51.038;7.008;2022-10-31T04:26:38;995.40;;;904.80;;
4132;SDS011;2080;51.038;7.008;2022-10-31T04:29:05;1000.77;;;908.43;;
4132;SDS011;2080;51.038;7.008;2022-10-31T04:31:30;1021.93;;;931.77;;
4132;SDS011;2080;51.038;7.008;2022-10-31T04:33:58;1059.30;;;965.30;;
4132;SDS011;2080;51.038;7.008;2022-10-31T04:36:23;1032.07;;;938.57;;
4132;SDS011;2080;51.038;7.008;2022-10-31T04:38:48;1013.80;;;918.67;;
4132;SDS011;2080;51.038;7.008;2022-10-31T04:41:14;1047.30;;;953.20;;
4132;SDS011;2080;51.038;7.008;2022-10-31T04:43:39;986.93;;;896.87;;
4132;SDS011;2080;51.038;7.008;2022-10-31T04:46:04;1026.47;;;933.90;;
4132;SDS011;2080;51.038;7.008;2022-10-31T04:48:29;1049.00;;;952.10;;
4132;SDS011;2080;51.038;7.008;2022-10-31T04:50:58;988.23;;;898.00;;
4132;SDS011;2080;51.038;7.008;2022-10-31T04:53:23;1032.73;;;940.13;;
4132;SDS011;2080;51.038;7.008;2022-10-31T04:55:48;1046.90;;;951.70;;
4132;SDS011;2080;51.038;7.008;2022-10-31T04:58:14;1006.13;;;914.43;;
4132;SDS011;2080;51.038;7.008;2022-10-31T05:00:41;1043.13;;;948.23;;
4132;SDS011;2080;51.038;7.008;2022-10-31T05:03:06;1008.73;;;917.13;;
4132;SDS011;2080;51.038;7.008;2022-10-31T05:05:32;1022.40;;;931.47;;
4132;SDS011;2080;51.038;7.008;2022-10-31T05:07:57;989.00;;;898.23;;
4132;SDS011;2080;51.038;7.008;2022-10-31T05:10:23;1019.63;;;928.47;;
4132;SDS011;2080;51.038;7.008;2022-10-31T05:12:53;1023.13;;;931.10;;
4132;SDS011;2080;51.038;7.008;2022-10-31T05:15:21;1017.30;;;924.00;;
4132;SDS011;2080;51.038;7.008;2022-10-31T05:17:47;1059.50;;;964.13;;
4132;SDS011;2080;51.038;7.008;2022-10-31T05:20:13;1051.80;;;956.67;;
4132;SDS011;2080;51.038;7.008;2022-10-31T05:22:45;1058.37;;;963.47;;
4132;SDS011;2080;51.038;7.008;2022-10-31T05:25:11;1052.47;;;957.80;;
4132;SDS011;2080;51.038;7.008;2022-10-31T05:27:40;1000.73;;;909.97;;
4132;SDS011;2080;51.038;7.008;2022-10-31T05:30:08;1056.80;;;962.73;;
4132;SDS011;2080;51.038;7.008;2022-10-31T05:32:37;1040.87;;;946.43;;
4132;SDS011;2080;51.038;7.008;2022-10-31T05:35:05;1042.77;;;946.80;;
4132;SDS011;2080;51.038;7.008;2022-10-31T05:37:30;1013.63;;;918.93;;
4132;SDS011;2080;51.038;7.008;2022-10-31T05:39:55;1036.67;;;942.90;;
4132;SDS011;2080;51.038;7.008;2022-10-31T05:42:23;1015.67;;;923.10;;
4132;SDS011;2080;51.038;7.008;2022-10-31T05:44:48;1012.43;;;919.97;;
4132;SDS011;2080;51.038;7.008;2022-10-31T05:47:16;1034.03;;;937.97;;
4132;SDS011;2080;51.038;7.008;2022-10-31T05:49:41;1030.47;;;936.93;;
4132;SDS011;2080;51.038;7.008;2022-10-31T05:52:06;1041.43;;;945.30;;
4132;SDS011;2080;51.038;7.008;2022-10-31T05:54:33;985.87;;;894.87;;
4132;SDS011;2080;51.038;7.008;2022-10-31T05:56:59;1023.13;;;930.57;;
4132;SDS011;2080;51.038;7.008;2022-10-31T05:59:26;1016.43;;;925.03;;
4132;SDS011;2080;51.038;7.008;2022-10-31T06:01:52;1003.77;;;913.50;;
4132;SDS011;2080;51.038;7.008;2022-10-31T06:04:17;1046.27;;;952.20;;
4132;SDS011;2080;51.038;7.008;2022-10-31T06:06:42;1007.90;;;915.03;;
4132;SDS011;2080;51.038;7.008;2022-10-31T06:09:07;1006.77;;;917.53;;
4132;SDS011;2080;51.038;7.008;2022-10-31T06:11:32;1011.20;;;921.23;;
4132;SDS011;2080;51.038;7.008;2022-10-31T06:13:57;1023.97;;;931.87;;
4132;SDS011;2080;51.038;7.008;2022-10-31T06:16:25;1023.07;;;932.20;;
4132;SDS011;2080;51.038;7.008;2022-10-31T06:18:50;1055.70;;;959.90;;
4132;SDS011;2080;51.038;7.008;2022-10-31T06:21:16;1042.60;;;949.00;;
4132;SDS011;2080;51.038;7.008;2022-10-31T06:23:43;1027.33;;;934.73;;
4132;SDS011;2080;51.038;7.008;2022-10-31T06:26:09;1050.03;;;955.53;;
4132;SDS011;2080;51.038;7.008;2022-10-31T06:28:38;1017.47;;;925.03;;
4132;SDS011;2080;51.038;7.008;2022-10-31T06:31:04;1002.30;;;911.10;;
4132;SDS011;2080;51.038;7.008;2022-10-31T06:33:29;1027.70;;;935.80;;
4132;SDS011;2080;51.038;7.008;2022-10-31T06:35:56;1029.83;;;935.50;;
4132;SDS011;2080;51.038;7.008;2022-10-31T06:38:22;1021.93;;;930.97;;
4132;SDS011;2080;51.038;7.008;2022-10-31T06:40:47;1011.07;;;919.67;;
4132;SDS011;2080;51.038;7.008;2022-10-31T06:43:12;1023.53;;;930.43;;
4132;SDS011;2080;51.038;7.008;2022-10-31T06:45:40;988.97;;;898.30;;
4132;SDS011;2080;51.038;7.008;2022-10-31T06:48:05;1012.40;;;919.27;;
4132;SDS011;2080;51.038;7.008;2022-10-31T06:50:30;1032.87;;;941.00;;
4132;SDS011;2080;51.038;7.008;2022-10-31T06:52:58;1015.83;;;923.13;;
4132;SDS011;2080;51.038;7.008;2022-10-31T06:55:23;996.87;;;906.40;;
4132;SDS011;2080;51.038;7.008;2022-10-31T07:00:17;1030.43;;;938.90;;
4132;SDS011;2080;51.038;7.008;2022-10-31T07:02:42;1002.00;;;909.40;;
4132;SDS011;2080;51.038;7.008;2022-10-31T07:05:07;990.30;;;901.90;;
4132;SDS011;2080;51.038;7.008;2022-10-31T07:07:33;1013.93;;;923.47;;
4132;SDS011;2080;51.038;7.008;2022-10-31T07:09:58;1015.37;;;921.67;;
4132;SDS011;2080;51.038;7.008;2022-10-31T07:12:23;1054.93;;;960.73;;
4132;SDS011;2080;51.038;7.008;2022-10-31T07:14:51;1044.27;;;948.57;;
4132;SDS011;2080;51.038;7.008;2022-10-31T07:17:16;1054.47;;;957.97;;
4132;SDS011;2080;51.038;7.008;2022-10-31T07:19:41;1029.47;;;934.77;;
4132;SDS011;2080;51.038;7.008;2022-10-31T07:22:06;1066.00;;;968.90;;
4132;SDS011;2080;51.038;7.008;2022-10-31T07:24:32;1048.60;;;952.10;;
4132;SDS011;2080;51.038;7.008;2022-10-31T07:26:59;1017.07;;;923.27;;
4132;SDS011;2080;51.038;7.008;2022-10-31T07:29:24;1019.00;;;925.83;;
4132;SDS011;2080;51.038;7.008;2022-10-31T07:31:49;1021.57;;;927.23;;
4132;SDS011;2080;51.038;7.008;2022-10-31T07:34:15;1005.37;;;911.17;;
4132;SDS011;2080;51.038;7.008;2022-10-31T07:36:40;1010.27;;;916.57;;
4132;SDS011;2080;51.038;7.008;2022-10-31T07:39:05;1032.00;;;936.53;;
4132;SDS011;2080;51.038;7.008;2022-10-31T07:41:30;1006.83;;;912.20;;
4132;SDS011;2080;51.038;7.008;2022-10-31T07:43:56;1005.60;;;912.27;;
4132;SDS011;2080;51.038;7.008;2022-10-31T07:46:21;980.93;;;891.50;;
4132;SDS011;2080;51.038;7.008;2022-10-31T07:48:47;929.30;;;845.10;;
4132;SDS011;2080;51.038;7.008;2022-10-31T07:51:16;951.60;;;864.90;;
4132;SDS011;2080;51.038;7.008;2022-10-31T07:53:42;916.73;;;831.33;;
4132;SDS011;2080;51.038;7.008;2022-10-31T07:56:07;952.73;;;867.43;;
4132;SDS011;2080;51.038;7.008;2022-10-31T07:58:32;860.10;;;782.53;;
4132;SDS011;2080;51.038;7.008;2022-10-31T08:01:00;952.83;;;867.70;;
4132;SDS011;2080;51.038;7.008;2022-10-31T08:03:25;867.20;;;789.87;;
4132;SDS011;2080;51.038;7.008;2022-10-31T08:05:50;747.30;;;679.90;;
4132;SDS011;2080;51.038;7.008;2022-10-31T08:08:15;828.27;;;752.87;;
4132;SDS011;2080;51.038;7.008;2022-10-31T08:10:41;797.23;;;724.83;;
4132;SDS011;2080;51.038;7.008;2022-10-31T08:13:10;728.53;;;662.70;;
4132;SDS011;2080;51.038;7.008;2022-10-31T08:15:35;806.50;;;734.00;;
4132;SDS011;2080;51.038;7.008;2022-10-31T08:18:04;805.20;;;732.73;;
4132;SDS011;2080;51.038;7.008;2022-10-31T08:20:31;767.60;;;698.40;;
4132;SDS011;2080;51.038;7.008;2022-10-31T08:23:00;705.80;;;640.67;;
4132;SDS011;2080;51.038;7.008;2022-10-31T08:25:26;701.67;;;636.10;;
4132;SDS011;2080;51.038;7.008;2022-10-31T08:27:52;809.97;;;736.80;;
4132;SDS011;2080;51.038;7.008;2022-10-31T08:30:18;712.17;;;646.17;;
4132;SDS011;2080;51.038;7.008;2022-10-31T08:32:44;490.67;;;437.57;;
4132;SDS011;2080;51.038;7.008;2022-10-31T08:35:09;595.57;;;537.10;;
4132;SDS011;2080;51.038;7.008;2022-10-31T08:37:36;808.90;;;736.53;;
4132;SDS011;2080;51.038;7.008;2022-10-31T08:40:02;662.20;;;600.27;;
4132;SDS011;2080;51.038;7.008;2022-10-31T08:42:30;637.03;;;575.47;;
4132;SDS011;2080;51.038;7.008;2022-10-31T08:44:55;561.43;;;504.97;;
4132;SDS011;2080;51.038;7.008;2022-10-31T08:47:25;610.40;;;550.07;;
4132;SDS011;2080;51.038;7.008;2022-10-31T08:49:52;679.70;;;615.27;;
4132;SDS011;2080;51.038;7.008;2022-10-31T08:52:18;785.30;;;713.67;;
4132;SDS011;2080;51.038;7.008;2022-10-31T08:54:43;539.83;;;485.17;;
4132;SDS011;2080;51.038;7.008;2022-10-31T08:57:08;547.93;;;491.20;;
4132;SDS011;2080;51.038;7.008;2022-10-31T08:59:33;578.77;;;521.00;;
4132;SDS011;2080;51.038;7.008;2022-10-31T09:01:58;585.03;;;526.70;;
4132;SDS011;2080;51.038;7.008;2022-10-31T09:04:24;473.33;;;417.87;;
4132;SDS011;2080;51.038;7.008;2022-10-31T09:06:49;503.80;;;449.77;;
4132;SDS011;2080;51.038;7.008;2022-10-31T09:09:17;455.50;;;395.87;;
4132;SDS011;2080;51.038;7.008;2022-10-31T09:11:44;451.87;;;399.67;;
4132;SDS011;2080;51.038;7.008;2022-10-31T09:14:09;457.47;;;399.27;;
4132;SDS011;2080;51.038;7.008;2022-10-31T09:16:35;449.67;;;394.93;;
4132;SDS011;2080;51.038;7.008;2022-10-31T09:19:00;479.43;;;426.73;;
4132;SDS011;2080;51.038;7.008;2022-10-31T09:21:25;460.93;;;409.07;;
4132;SDS011;2080;51.038;7.008;2022-10-31T09:23:50;462.60;;;362.20;;
4132;SDS011;2080;51.038;7.008;2022-10-31T09:26:18;447.67;;;289.70;;
4132;SDS011;2080;51.038;7.008;2022-10-31T09:28:44;462.57;;;335.93;;
4132;SDS011;2080;51.038;7.008;2022-10-31T09:31:09;446.97;;;298.60;;
4132;SDS011;2080;51.038;7.008;2022-10-31T09:33:35;452.40;;;309.43;;
4132;SDS011;2080;51.038;7.008;2022-10-31T09:36:00;436.73;;;271.23;;
4132;SDS011;2080;51.038;7.008;2022-10-31T09:38:25;463.57;;;343.30;;
4132;SDS011;2080;51.038;7.008;2022-10-31T09:53:43;523.20;;;466.10;;
4132;SDS011;2080;51.038;7.008;2022-10-31T09:56:11;565.73;;;506.73;;
4132;SDS011;2080;51.038;7.008;2022-10-31T09:58:48;465.17;;;357.43;;
4132;SDS011;2080;51.038;7.008;2022-10-31T10:01:57;483.97;;;399.80;;
4132;SDS011;2080;51.038;7.008;2022-10-31T10:06:37;673.37;;;611.40;;
4132;SDS011;2080;51.038;7.008;2022-10-31T10:09:06;773.20;;;703.83;;
4132;SDS011;2080;51.038;7.008;2022-10-31T10:14:15;651.03;;;588.70;;
4132;SDS011;2080;51.038;7.008;2022-10-31T10:24:59;498.30;;;424.10;;
4132;SDS011;2080;51.038;7.008;2022-10-31T10:27:37;466.70;;;363.20;;
4132;SDS011;2080;51.038;7.008;2022-10-31T10:30:19;417.20;;;261.13;;
4132;SDS011;2080;51.038;7.008;2022-10-31T10:32:49;487.70;;;411.80;;
4132;SDS011;2080;51.038;7.008;2022-10-31T10:37:54;431.70;;;263.17;;
4132;SDS011;2080;51.038;7.008;2022-10-31T10:40:21;463.23;;;410.33;;
4132;SDS011;2080;51.038;7.008;2022-10-31T10:43:15;454.43;;;341.63;;
4132;SDS011;2080;51.038;7.008;2022-10-31T10:45:53;476.17;;;424.77;;
4132;SDS011;2080;51.038;7.008;2022-10-31T10:51:06;454.17;;;317.93;;
4132;SDS011;2080;51.038;7.008;2022-10-31T10:53:46;444.13;;;296.57;;
4132;SDS011;2080;51.038;7.008;2022-10-31T10:56:40;433.97;;;327.70;;
4132;SDS011;2080;51.038;7.008;2022-10-31T10:59:09;448.57;;;302.50;;
4132;SDS011;2080;51.038;7.008;2022-10-31T11:01:35;450.37;;;305.93;;
4132;SDS011;2080;51.038;7.008;2022-10-31T11:04:01;423.47;;;248.10;;
4132;SDS011;2080;51.038;7.008;2022-10-31T11:06:32;460.77;;;349.93;;
4132;SDS011;2080;51.038;7.008;2022-10-31T11:08:57;435.40;;;245.20;;
4132;SDS011;2080;51.038;7.008;2022-10-31T11:11:33;481.93;;;377.63;;
4132;SDS011;2080;51.038;7.008;2022-10-31T11:14:13;431.60;;;281.70;;
4132;SDS011;2080;51.038;7.008;2022-10-31T11:16:41;433.53;;;281.10;;
4132;SDS011;2080;51.038;7.008;2022-10-31T11:21:34;460.67;;;329.70;;
4132;SDS011;2080;51.038;7.008;2022-10-31T11:26:34;439.23;;;271.13;;
4132;SDS011;2080;51.038;7.008;2022-10-31T11:29:00;471.60;;;367.13;;
4132;SDS011;2080;51.038;7.008;2022-10-31T11:31:31;452.60;;;327.67;;
4132;SDS011;2080;51.038;7.008;2022-10-31T11:36:25;402.30;;;204.33;;
4132;SDS011;2080;51.038;7.008;2022-10-31T11:38:51;434.50;;;318.73;;
4132;SDS011;2080;51.038;7.008;2022-10-31T11:41:28;424.80;;;258.73;;
4132;SDS011;2080;51.038;7.008;2022-10-31T11:44:00;501.33;;;441.23;;
4132;SDS011;2080;51.038;7.008;2022-10-31T11:49:02;446.20;;;291.57;;
4132;SDS011;2080;51.038;7.008;2022-10-31T11:51:32;438.30;;;286.93;;
4132;SDS011;2080;51.038;7.008;2022-10-31T11:53:58;447.20;;;347.53;;
4132;SDS011;2080;51.038;7.008;2022-10-31T11:56:24;438.53;;;292.20;;
4132;SDS011;2080;51.038;7.008;2022-10-31T11:58:56;441.20;;;262.20;;
4132;SDS011;2080;51.038;7.008;2022-10-31T12:01:24;411.80;;;264.70;;
4132;SDS011;2080;51.038;7.008;2022-10-31T12:04:11;515.50;;;461.00;;
4132;SDS011;2080;51.038;7.008;2022-10-31T12:06:41;474.77;;;366.67;;
4132;SDS011;2080;51.038;7.008;2022-10-31T12:09:21;486.93;;;414.93;;
4132;SDS011;2080;51.038;7.008;2022-10-31T12:14:44;451.07;;;314.70;;
4132;SDS011;2080;51.038;7.008;2022-10-31T12:30:19;468.10;;;353.97;;
4132;SDS011;2080;51.038;7.008;2022-10-31T12:33:08;452.30;;;334.13;;
4132;SDS011;2080;51.038;7.008;2022-10-31T12:40:53;428.30;;;256.37;;
4132;SDS011;2080;51.038;7.008;2022-10-31T12:45:59;437.27;;;273.27;;
4132;SDS011;2080;51.038;7.008;2022-10-31T12:48:38;386.57;;;143.77;;
4132;SDS011;2080;51.038;7.008;2022-10-31T12:53:49;414.23;;;209.60;;
4132;SDS011;2080;51.038;7.008;2022-10-31T12:56:26;389.90;;;137.47;;
4132;SDS011;2080;51.038;7.008;2022-10-31T12:58:59;416.03;;;212.27;;
4132;SDS011;2080;51.038;7.008;2022-10-31T13:04:09;413.00;;;238.27;;
4132;SDS011;2080;51.038;7.008;2022-10-31T13:06:41;392.43;;;188.47;;
4132;SDS011;2080;51.038;7.008;2022-10-31T13:09:09;426.17;;;237.70;;
4132;SDS011;2080;51.038;7.008;2022-10-31T13:11:37;435.47;;;283.00;;
4132;SDS011;2080;51.038;7.008;2022-10-31T13:14:19;396.00;;;177.17;;
4132;SDS011;2080;51.038;7.008;2022-10-31T13:16:48;457.00;;;293.30;;
4132;SDS011;2080;51.038;7.008;2022-10-31T13:19:23;401.53;;;218.03;;
4132;SDS011;2080;51.038;7.008;2022-10-31T13:24:19;440.93;;;332.63;;
4132;SDS011;2080;51.038;7.008;2022-10-31T13:31:50;447.70;;;310.70;;
4132;SDS011;2080;51.038;7.008;2022-10-31T13:34:21;407.67;;;189.77;;
4132;SDS011;2080;51.038;7.008;2022-10-31T13:36:52;420.23;;;253.77;;
4132;SDS011;2080;51.038;7.008;2022-10-31T13:44:47;401.23;;;222.93;;
4132;SDS011;2080;51.038;7.008;2022-10-31T13:49:50;422.33;;;277.33;;
4132;SDS011;2080;51.038;7.008;2022-10-31T13:52:22;444.33;;;356.03;;
4132;SDS011;2080;51.038;7.008;2022-10-31T13:54:52;437.40;;;270.13;;
4132;SDS011;2080;51.038;7.008;2022-10-31T13:57:31;374.80;;;132.63;;
4132;SDS011;2080;51.038;7.008;2022-10-31T14:00:42;421.63;;;200.23;;
4132;SDS011;2080;51.038;7.008;2022-10-31T14:02:44;391.77;;;166.13;;
4132;SDS011;2080;51.038;7.008;2022-10-31T14:05:30;380.87;;;157.97;;
4132;SDS011;2080;51.038;7.008;2022-10-31T14:08:00;372.87;;;126.60;;
4132;SDS011;2080;51.038;7.008;2022-10-31T14:12:51;427.73;;;167.63;;
4132;SDS011;2080;51.038;7.008;2022-10-31T14:15:24;431.57;;;272.83;;
4132;SDS011;2080;51.038;7.008;2022-10-31T14:22:40;459.40;;;347.80;;
4132;SDS011;2080;51.038;7.008;2022-10-31T14:25:25;423.33;;;268.27;;
4132;SDS011;2080;51.038;7.008;2022-10-31T14:27:50;424.90;;;233.57;;
4132;SDS011;2080;51.038;7.008;2022-10-31T14:30:18;436.30;;;285.73;;
4132;SDS011;2080;51.038;7.008;2022-10-31T14:32:44;430.33;;;232.17;;
4132;SDS011;2080;51.038;7.008;2022-10-31T14:35:15;450.73;;;308.20;;
4132;SDS011;2080;51.038;7.008;2022-10-31T14:40:30;433.60;;;270.93;;
4132;SDS011;2080;51.038;7.008;2022-10-31T14:50:24;413.17;;;217.77;;
4132;SDS011;2080;51.038;7.008;2022-10-31T14:52:57;452.03;;;300.73;;
4132;SDS011;2080;51.038;7.008;2022-10-31T14:55:25;466.50;;;268.00;;
4132;SDS011;2080;51.038;7.008;2022-10-31T14:57:58;447.10;;;294.97;;
4132;SDS011;2080;51.038;7.008;2022-10-31T15:00:24;459.90;;;350.80;;
4132;SDS011;2080;51.038;7.008;2022-10-31T15:05:35;495.50;;;436.93;;
4132;SDS011;2080;51.038;7.008;2022-10-31T15:08:12;456.17;;;315.80;;
4132;SDS011;2080;51.038;7.008;2022-10-31T15:10:38;428.87;;;229.00;;
4132;SDS011;2080;51.038;7.008;2022-10-31T15:13:22;486.10;;;402.13;;
4132;SDS011;2080;51.038;7.008;2022-10-31T15:15:48;418.03;;;206.53;;
4132;SDS011;2080;51.038;7.008;2022-10-31T15:18:17;435.40;;;246.80;;
4132;SDS011;2080;51.038;7.008;2022-10-31T15:20:44;438.90;;;284.83;;
4132;SDS011;2080;51.038;7.008;2022-10-31T15:23:11;423.57;;;242.80;;
4132;SDS011;2080;51.038;7.008;2022-10-31T15:25:39;474.60;;;363.93;;
4132;SDS011;2080;51.038;7.008;2022-10-31T15:28:12;452.43;;;384.90;;
4132;SDS011;2080;51.038;7.008;2022-10-31T15:30:37;461.97;;;393.93;;
4132;SDS011;2080;51.038;7.008;2022-10-31T15:33:14;468.30;;;363.20;;
4132;SDS011;2080;51.038;7.008;2022-10-31T15:35:42;376.37;;;165.63;;
4132;SDS011;2080;51.038;7.008;2022-10-31T15:38:19;426.20;;;183.33;;
4132;SDS011;2080;51.038;7.008;2022-10-31T15:40:50;443.87;;;301.33;;
4132;SDS011;2080;51.038;7.008;2022-10-31T15:43:16;400.07;;;211.37;;
4132;SDS011;2080;51.038;7.008;2022-10-31T15:45:41;453.00;;;332.50;;
4132;SDS011;2080;51.038;7.008;2022-10-31T15:48:17;481.03;;;396.97;;
4132;SDS011;2080;51.038;7.008;2022-10-31T15:50:47;458.60;;;385.73;;
4132;SDS011;2080;51.038;7.008;2022-10-31T15:56:18;425.70;;;291.33;;
4132;SDS011;2080;51.038;7.008;2022-10-31T15:58:39;434.07;;;326.40;;
4132;SDS011;2080;51.038;7.008;2022-10-31T16:01:05;459.13;;;399.97;;
4132;SDS011;2080;51.038;7.008;2022-10-31T16:03:31;461.37;;;406.80;;
4132;SDS011;2080;51.038;7.008;2022-10-31T16:05:58;569.23;;;511.20;;
4132;SDS011;2080;51.038;7.008;2022-10-31T16:10:55;476.23;;;421.37;;
4132;SDS011;2080;51.038;7.008;2022-10-31T16:13:28;513.50;;;455.57;;
4132;SDS011;2080;51.038;7.008;2022-10-31T16:15:57;514.93;;;459.37;;
4132;SDS011;2080;51.038;7.008;2022-10-31T16:18:24;542.47;;;485.17;;
4132;SDS011;2080;51.038;7.008;2022-10-31T16:20:53;622.60;;;562.70;;
4132;SDS011;2080;51.038;7.008;2022-10-31T16:23:20;459.43;;;394.57;;
4132;SDS011;2080;51.038;7.008;2022-10-31T16:25:46;484.87;;;407.53;;
4132;SDS011;2080;51.038;7.008;2022-10-31T16:28:19;518.47;;;461.70;;
4132;SDS011;2080;51.038;7.008;2022-10-31T16:30:47;485.20;;;388.00;;
4132;SDS011;2080;51.038;7.008;2022-10-31T16:33:23;486.07;;;431.57;;
4132;SDS011;2080;51.038;7.008;2022-10-31T16:35:49;467.70;;;415.40;;
4132;SDS011;2080;51.038;7.008;2022-10-31T16:38:14;549.37;;;492.17;;
4132;SDS011;2080;51.038;7.008;2022-10-31T16:40:40;536.03;;;478.23;;
4132;SDS011;2080;51.038;7.008;2022-10-31T16:43:09;443.40;;;346.37;;
4132;SDS011;2080;51.038;7.008;2022-10-31T16:45:35;502.57;;;425.40;;
4132;SDS011;2080;51.038;7.008;2022-10-31T16:48:04;517.03;;;450.37;;
4132;SDS011;2080;51.038;7.008;2022-10-31T16:50:30;529.57;;;472.27;;
4132;SDS011;2080;51.038;7.008;2022-10-31T16:52:57;483.87;;;426.00;;
4132;SDS011;2080;51.038;7.008;2022-10-31T16:55:25;492.20;;;409.53;;
4132;SDS011;2080;51.038;7.008;2022-10-31T16:57:51;502.13;;;444.93;;